Time;durP1;ratioP1;P1;durP2;ratioP2;P2;SDS_P1;SDS_P2;PMS_P1;PMS_P2;Temp;Humidity;BMP_temperature;BMP_pressure;BME280_temperature;BME280_humidity;BME280_pressure;Samples;Min_cycle;Max_cycle;Signal;HPM_P1;HPM_P2
2022/01/04 00:00:59;;;;;;;5.10;1.70;;;7.60;99.90;;;;;;5076172;28;20990;-70
2022/01/04 00:03:25;;;;;;;7.17;1.90;;;7.70;99.90;;;;;;5077246;28;20450;-69
2022/01/04 00:05:52;;;;;;;2.57;2.00;;;7.60;99.90;;;;;;5077154;28;20465;-69
2022/01/04 00:08:20;;;;;;;2.53;1.83;;;7.70;99.90;;;;;;5077401;28;20488;-69
2022/01/04 00:10:47;;;;;;;4.77;1.90;;;7.70;99.90;;;;;;5077301;28;20779;-70
2022/01/04 00:13:23;;;;;;;3.83;1.60;;;7.70;99.90;;;;;;5078860;28;20455;-69
2022/01/04 00:15:51;;;;;;;3.63;1.50;;;7.80;99.90;;;;;;5079514;28;20624;-70
2022/01/04 00:18:18;;;;;;;5.17;1.30;;;7.80;99.90;;;;;;5080341;28;20458;-70
2022/01/04 00:20:45;;;;;;;3.70;1.67;;;7.80;99.90;;;;;;5078954;28;20474;-69
2022/01/04 00:23:12;;;;;;;4.10;1.80;;;7.80;99.90;;;;;;5076562;28;20458;-69
2022/01/04 00:25:40;;;;;;;2.47;1.60;;;7.80;99.90;;;;;;5075580;28;20458;-70
2022/01/04 00:28:07;;;;;;;3.80;1.60;;;7.70;99.90;;;;;;5075670;28;20458;-70
2022/01/04 00:30:35;;;;;;;3.60;2.03;;;7.80;99.90;;;;;;5075529;28;20470;-70
2022/01/04 00:33:01;;;;;;;6.03;2.17;;;7.70;99.90;;;;;;5075404;28;20462;-70
2022/01/04 00:35:29;;;;;;;3.67;1.87;;;7.70;99.90;;;;;;5075487;28;20844;-70
2022/01/04 00:37:56;;;;;;;10.67;2.33;;;7.70;99.90;;;;;;5075547;28;20473;-70
2022/01/04 00:40:24;;;;;;;3.33;1.80;;;7.70;99.90;;;;;;5074931;28;20500;-68
2022/01/04 00:42:52;;;;;;;2.80;1.70;;;7.70;99.90;;;;;;5075893;28;20482;-68
2022/01/04 00:45:19;;;;;;;6.03;1.67;;;7.70;99.90;;;;;;5075088;28;20458;-69
2022/01/04 00:49:09;;;;;;;2.63;1.60;;;7.70;99.90;;;;;;5074829;28;20970;-69
2022/01/04 00:50:33;;;;;;;2.67;1.47;;;7.60;99.90;;;;;;5074690;28;20449;-68
2022/01/04 00:53:01;;;;;;;1.63;1.33;;;7.60;99.90;;;;;;5075407;28;20464;-69
2022/01/04 00:55:28;;;;;;;3.20;1.40;;;7.50;99.90;;;;;;5075354;28;20461;-70
2022/01/04 00:57:57;;;;;;;3.10;1.40;;;7.60;99.90;;;;;;5075246;28;20457;-70
2022/01/04 01:00:24;;;;;;;6.30;1.87;;;7.60;99.90;;;;;;5074962;28;20965;-70
2022/01/04 01:02:51;;;;;;;2.77;1.70;;;7.50;99.90;;;;;;5074702;28;20973;-70
2022/01/04 01:05:18;;;;;;;3.70;1.53;;;7.50;99.90;;;;;;5074811;28;20477;-69
2022/01/04 01:07:45;;;;;;;2.27;1.53;;;7.50;99.90;;;;;;5075033;28;20512;-70
2022/01/04 01:10:31;;;;;;;5.30;1.80;;;7.50;99.90;;;;;;5074817;28;20520;-69
2022/01/04 01:12:59;;;;;;;5.10;2.27;;;7.50;99.90;;;;;;5074635;28;20450;-68
2022/01/04 01:15:26;;;;;;;3.33;1.83;;;7.40;99.90;;;;;;5074661;28;20927;-70
2022/01/04 01:17:53;;;;;;;2.60;1.57;;;7.30;99.90;;;;;;5075000;28;20465;-69
2022/01/04 01:20:20;;;;;;;2.70;1.80;;;7.40;99.90;;;;;;5074796;28;20466;-69
2022/01/04 01:22:47;;;;;;;3.67;1.80;;;7.40;99.90;;;;;;5073861;28;20485;-69
2022/01/04 01:25:14;;;;;;;3.07;1.30;;;7.40;99.90;;;;;;5074842;28;20458;-69
2022/01/04 01:27:41;;;;;;;3.20;1.63;;;7.40;99.90;;;;;;5074695;28;20466;-69
2022/01/04 01:30:11;;;;;;;7.13;1.47;;;7.40;99.90;;;;;;5074536;28;20494;-69
2022/01/04 01:32:38;;;;;;;4.00;1.27;;;7.40;99.90;;;;;;5074753;28;20796;-69
2022/01/04 01:35:05;;;;;;;4.40;1.43;;;7.50;99.90;;;;;;5074556;28;20461;-69
2022/01/04 01:37:34;;;;;;;2.73;1.20;;;7.40;99.90;;;;;;5074774;28;20466;-69
2022/01/04 01:40:01;;;;;;;3.07;1.57;;;7.40;99.90;;;;;;5074940;28;20490;-70
2022/01/04 01:42:27;;;;;;;4.50;1.33;;;7.50;99.90;;;;;;5074626;28;20489;-70
2022/01/04 01:44:54;;;;;;;2.13;1.10;;;7.50;99.90;;;;;;5074243;28;20465;-70
2022/01/04 01:47:22;;;;;;;3.33;1.47;;;7.50;99.90;;;;;;5073846;28;20486;-70
2022/01/04 01:49:49;;;;;;;3.57;1.60;;;7.50;99.90;;;;;;5074693;28;20458;-70
2022/01/04 01:52:16;;;;;;;3.73;1.23;;;7.40;99.90;;;;;;5074434;28;20480;-70
2022/01/04 01:54:42;;;;;;;3.33;1.37;;;7.40;99.90;;;;;;5074378;28;20464;-70
2022/01/04 01:57:09;;;;;;;1.60;1.10;;;7.50;99.90;;;;;;5074240;28;20939;-69
2022/01/04 01:59:36;;;;;;;3.27;1.23;;;7.50;99.90;;;;;;5074447;28;20481;-69
2022/01/04 02:02:03;;;;;;;2.60;1.30;;;7.50;99.90;;;;;;5074242;28;20474;-69
2022/01/04 02:04:32;;;;;;;2.50;1.20;;;7.50;99.90;;;;;;5074947;28;20487;-69
2022/01/04 02:06:59;;;;;;;3.63;1.23;;;7.50;99.90;;;;;;5074336;28;20454;-69
2022/01/04 02:09:26;;;;;;;1.70;1.20;;;7.50;99.90;;;;;;5074491;28;20579;-69
2022/01/04 02:11:55;;;;;;;2.50;1.40;;;7.50;99.90;;;;;;5073989;28;20454;-68
2022/01/04 02:14:24;;;;;;;2.57;1.27;;;7.40;99.90;;;;;;5074314;28;20563;-69
2022/01/04 02:16:51;;;;;;;6.00;1.30;;;7.40;99.90;;;;;;5074198;28;20549;-69
2022/01/04 02:19:17;;;;;;;3.93;1.27;;;7.50;99.90;;;;;;5074319;28;20454;-68
2022/01/04 02:21:45;;;;;;;1.60;1.20;;;7.40;99.90;;;;;;5074411;28;20477;-69
2022/01/04 02:24:12;;;;;;;2.00;1.10;;;7.50;99.90;;;;;;5074187;28;20454;-69
2022/01/04 02:26:41;;;;;;;2.73;1.30;;;7.40;99.90;;;;;;5074141;28;20458;-70
2022/01/04 02:29:08;;;;;;;2.07;1.20;;;7.50;99.90;;;;;;5074164;28;20840;-70
2022/01/04 02:31:34;;;;;;;4.47;1.43;;;7.40;99.90;;;;;;5073969;28;20838;-70
2022/01/04 02:34:01;;;;;;;9.17;1.67;;;7.40;99.90;;;;;;5076629;28;20458;-70
2022/01/04 02:36:28;;;;;;;2.37;1.40;;;7.30;99.90;;;;;;5077733;28;20466;-69
2022/01/04 02:38:56;;;;;;;2.03;1.20;;;7.30;99.90;;;;;;5077705;28;20462;-68
2022/01/04 02:41:22;;;;;;;1.87;1.10;;;7.30;99.90;;;;;;5077629;28;20481;-68
2022/01/04 02:43:49;;;;;;;2.60;1.50;;;7.30;99.90;;;;;;5077572;28;20783;-68
2022/01/04 02:46:16;;;;;;;1.53;1.10;;;7.30;99.90;;;;;;5078018;28;20461;-69
2022/01/04 02:48:43;;;;;;;3.20;1.30;;;7.40;99.90;;;;;;5077015;28;20535;-68
2022/01/04 02:51:10;;;;;;;2.93;1.40;;;7.40;99.90;;;;;;5077589;28;20464;-68
2022/01/04 02:53:37;;;;;;;3.57;1.37;;;7.40;99.90;;;;;;5077400;28;20591;-69
2022/01/04 02:56:05;;;;;;;2.57;1.17;;;7.40;99.90;;;;;;5077202;28;20458;-69
2022/01/04 02:58:32;;;;;;;2.60;1.30;;;7.40;99.90;;;;;;5077204;28;20468;-69
2022/01/04 03:00:58;;;;;;;3.43;1.00;;;7.40;99.90;;;;;;5077274;28;20462;-69
2022/01/04 03:03:25;;;;;;;1.47;1.10;;;7.40;99.90;;;;;;5077291;28;20518;-69
2022/01/04 03:05:52;;;;;;;1.97;1.00;;;7.40;99.90;;;;;;5078405;28;20469;-68
2022/01/04 03:08:18;;;;;;;2.27;1.30;;;7.50;99.90;;;;;;5078702;28;20944;-69
2022/01/04 03:10:45;;;;;;;1.90;1.30;;;7.50;99.90;;;;;;5078541;28;20477;-69
2022/01/04 03:13:13;;;;;;;2.50;1.20;;;7.40;99.90;;;;;;5078188;28;20914;-69
2022/01/04 03:15:40;;;;;;;1.60;1.30;;;7.40;99.90;;;;;;5078294;28;20527;-69
2022/01/04 03:18:07;;;;;;;1.40;1.03;;;7.40;99.90;;;;;;5077955;28;20461;-69
2022/01/04 03:20:34;;;;;;;1.47;1.03;;;7.40;99.90;;;;;;5083975;28;20462;-69
2022/01/04 03:23:00;;;;;;;2.90;1.33;;;7.40;99.90;;;;;;5080471;28;20486;-69
2022/01/04 03:25:27;;;;;;;2.30;1.30;;;7.50;99.90;;;;;;5076873;28;20470;-69
2022/01/04 03:27:54;;;;;;;1.97;1.10;;;7.50;99.90;;;;;;5076866;28;20492;-69
2022/01/04 03:30:22;;;;;;;2.80;1.23;;;7.50;99.90;;;;;;5076992;28;20462;-69
2022/01/04 03:32:50;;;;;;;3.83;1.37;;;7.50;99.90;;;;;;5076827;28;20483;-69
2022/01/04 03:35:17;;;;;;;2.57;1.30;;;7.60;99.90;;;;;;5076742;28;20512;-69
2022/01/04 03:37:46;;;;;;;2.07;1.33;;;7.60;99.90;;;;;;5076444;28;20930;-69
2022/01/04 03:40:14;;;;;;;2.07;1.00;;;7.50;99.90;;;;;;5076929;28;20771;-69
2022/01/04 03:42:41;;;;;;;2.10;1.30;;;7.60;99.90;;;;;;5076738;28;20485;-70
2022/01/04 03:45:08;;;;;;;2.90;1.00;;;7.60;99.90;;;;;;5075561;28;20918;-69
2022/01/04 03:47:36;;;;;;;3.30;1.40;;;7.60;99.90;;;;;;5076562;28;20561;-70
2022/01/04 03:50:04;;;;;;;2.33;1.23;;;7.60;99.90;;;;;;5076985;28;20930;-70
2022/01/04 03:52:31;;;;;;;1.30;1.10;;;7.70;99.90;;;;;;5076386;28;20575;-70
2022/01/04 03:55:00;;;;;;;2.87;1.33;;;7.70;99.90;;;;;;5076476;28;20466;-68
2022/01/04 03:57:26;;;;;;;2.03;1.50;;;7.70;99.90;;;;;;5075813;28;20918;-70
2022/01/04 03:59:53;;;;;;;1.80;1.20;;;7.70;99.90;;;;;;5075868;28;20929;-69
2022/01/04 04:02:20;;;;;;;1.40;1.17;;;7.70;99.90;;;;;;5075743;28;20958;-69
2022/01/04 04:04:48;;;;;;;1.80;1.30;;;7.70;99.90;;;;;;5076125;28;20469;-69
2022/01/04 04:07:14;;;;;;;1.40;1.00;;;7.70;99.90;;;;;;5076851;28;20454;-69
2022/01/04 04:09:41;;;;;;;2.40;1.30;;;7.60;99.90;;;;;;5075867;28;20481;-69
2022/01/04 04:12:09;;;;;;;3.33;1.33;;;7.60;99.90;;;;;;5075695;28;20910;-69
2022/01/04 04:14:36;;;;;;;4.73;1.43;;;7.60;99.90;;;;;;5075994;28;20804;-70
2022/01/04 04:17:03;;;;;;;2.93;1.10;;;7.70;99.90;;;;;;5076108;28;20458;-68
2022/01/04 04:19:30;;;;;;;3.50;1.20;;;7.70;99.90;;;;;;5075863;28;20459;-69
2022/01/04 04:21:59;;;;;;;1.40;1.07;;;7.70;99.90;;;;;;5075722;28;20504;-69
2022/01/04 04:24:26;;;;;;;3.73;1.30;;;7.70;99.90;;;;;;5075374;28;20934;-69
2022/01/04 04:26:53;;;;;;;1.53;1.23;;;7.70;99.90;;;;;;5076276;28;20481;-69
2022/01/04 04:29:19;;;;;;;1.90;1.30;;;7.70;99.90;;;;;;5076819;28;20454;-69
2022/01/04 04:31:46;;;;;;;1.90;1.40;;;7.70;99.90;;;;;;5075748;28;20458;-69
2022/01/04 04:34:12;;;;;;;2.53;1.47;;;7.70;99.90;;;;;;5075983;28;20473;-69
2022/01/04 04:36:39;;;;;;;2.60;1.70;;;7.60;99.90;;;;;;5076486;28;20462;-70
2022/01/04 04:39:07;;;;;;;2.07;1.70;;;7.60;99.90;;;;;;5075965;28;20465;-68
2022/01/04 04:41:34;;;;;;;2.87;1.40;;;7.50;99.90;;;;;;5076023;28;20462;-69
2022/01/04 04:44:00;;;;;;;3.77;1.90;;;7.50;99.90;;;;;;5075359;28;20478;-69
2022/01/04 04:46:27;;;;;;;2.60;1.50;;;7.50;99.90;;;;;;5075815;28;20473;-69
2022/01/04 04:48:54;;;;;;;1.97;1.40;;;7.50;99.90;;;;;;5074785;28;20482;-69
2022/01/04 04:51:21;;;;;;;2.30;1.40;;;7.50;99.90;;;;;;5075222;28;20468;-69
2022/01/04 04:53:47;;;;;;;2.67;1.67;;;7.50;99.90;;;;;;5075112;28;20515;-69
2022/01/04 04:56:15;;;;;;;5.03;1.60;;;7.50;99.90;;;;;;5074646;28;20458;-69
2022/01/04 04:58:42;;;;;;;2.07;1.67;;;7.60;99.90;;;;;;5075072;28;20484;-69
2022/01/04 05:01:09;;;;;;;2.43;1.30;;;7.50;99.90;;;;;;5075093;28;20465;-69
2022/01/04 05:03:35;;;;;;;5.30;1.77;;;7.50;99.90;;;;;;5074941;28;20875;-68
2022/01/04 05:06:03;;;;;;;3.47;2.03;;;7.60;99.90;;;;;;5074973;28;20469;-69
2022/01/04 05:08:29;;;;;;;3.40;2.30;;;7.50;99.90;;;;;;5075167;28;20470;-69
2022/01/04 05:10:57;;;;;;;2.60;1.80;;;7.50;99.90;;;;;;5075020;28;20801;-69
2022/01/04 05:13:25;;;;;;;5.70;4.10;;;7.50;99.90;;;;;;5074926;28;20515;-69
2022/01/04 05:15:52;;;;;;;3.23;1.70;;;7.50;99.90;;;;;;5074941;28;20455;-69
2022/01/04 05:18:19;;;;;;;2.53;1.63;;;7.50;99.90;;;;;;5074960;28;20546;-69
2022/01/04 05:20:46;;;;;;;2.50;1.87;;;7.50;99.90;;;;;;5074728;28;20469;-69
2022/01/04 05:23:13;;;;;;;5.97;2.00;;;7.50;99.90;;;;;;5074913;28;20478;-69
2022/01/04 05:25:41;;;;;;;3.80;2.40;;;7.50;99.90;;;;;;5074856;28;20785;-69
2022/01/04 05:28:07;;;;;;;3.87;2.43;;;7.50;99.90;;;;;;5074755;28;20450;-70
2022/01/04 05:30:38;;;;;;;5.57;2.10;;;7.50;99.90;;;;;;5074788;28;20461;-69
2022/01/04 05:33:05;;;;;;;3.43;2.00;;;7.50;99.90;;;;;;5074900;28;20887;-69
2022/01/04 05:35:32;;;;;;;3.40;2.27;;;7.40;99.90;;;;;;5075157;28;20461;-69
2022/01/04 05:37:58;;;;;;;7.23;2.53;;;7.30;99.90;;;;;;5074712;28;20465;-69
2022/01/04 05:40:25;;;;;;;3.90;2.30;;;7.30;99.90;;;;;;5074686;28;20485;-69
2022/01/04 05:42:52;;;;;;;5.23;2.27;;;7.30;99.90;;;;;;5074814;28;20477;-69
2022/01/04 05:45:18;;;;;;;4.47;2.10;;;7.30;99.90;;;;;;5074971;28;20465;-69
2022/01/04 05:47:47;;;;;;;3.43;2.00;;;7.30;99.90;;;;;;5074343;28;20492;-69
2022/01/04 05:50:13;;;;;;;3.17;2.17;;;7.20;99.90;;;;;;5074690;28;20461;-69
2022/01/04 05:52:40;;;;;;;3.77;2.47;;;7.20;99.90;;;;;;5074445;28;20450;-69
2022/01/04 05:55:08;;;;;;;3.60;2.60;;;7.20;99.90;;;;;;5074548;28;20480;-69
2022/01/04 05:57:35;;;;;;;3.03;2.07;;;7.20;99.90;;;;;;5074151;28;20485;-69
2022/01/04 06:00:04;;;;;;;6.10;3.60;;;7.20;99.90;;;;;;5074590;28;20457;-69
2022/01/04 06:02:31;;;;;;;3.40;2.80;;;7.20;99.90;;;;;;5074121;28;20485;-69
2022/01/04 06:04:59;;;;;;;3.60;2.30;;;7.20;99.90;;;;;;5074365;28;20446;-69
2022/01/04 06:07:25;;;;;;;10.80;3.00;;;7.30;99.90;;;;;;5074421;28;20797;-70
2022/01/04 06:09:54;;;;;;;2.47;2.27;;;7.30;99.90;;;;;;5078241;28;20453;-70
2022/01/04 06:15:07;;;;;;;3.50;3.00;;;7.40;99.90;;;;;;5077808;28;20796;-70
2022/01/04 06:17:35;;;;;;;4.80;2.97;;;7.40;99.90;;;;;;5078059;28;20453;-69
2022/01/04 06:20:05;;;;;;;3.00;2.70;;;7.40;99.90;;;;;;5077958;28;20469;-69
2022/01/04 06:22:32;;;;;;;6.20;2.37;;;7.40;99.90;;;;;;5078156;28;20454;-69
2022/01/04 06:24:59;;;;;;;4.17;2.33;;;7.40;99.90;;;;;;5078066;28;20461;-69
2022/01/04 06:27:26;;;;;;;11.07;3.20;;;7.40;99.90;;;;;;5078179;28;20519;-69
2022/01/04 06:29:53;;;;;;;5.33;2.70;;;7.40;99.90;;;;;;5078066;28;20450;-69
2022/01/04 06:32:20;;;;;;;3.43;3.00;;;7.40;99.90;;;;;;5078035;28;20812;-70
2022/01/04 06:34:47;;;;;;;3.47;2.67;;;7.40;99.90;;;;;;5078055;28;20463;-70
2022/01/04 06:37:15;;;;;;;4.40;2.60;;;7.50;99.90;;;;;;5077960;28;20454;-69
2022/01/04 06:39:42;;;;;;;5.33;2.90;;;7.40;99.90;;;;;;5077743;28;20484;-70
2022/01/04 06:42:09;;;;;;;3.07;2.47;;;7.40;99.90;;;;;;5077788;28;20485;-70
2022/01/04 06:44:36;;;;;;;4.53;3.10;;;7.50;99.90;;;;;;5077790;28;20805;-69
2022/01/04 06:47:03;;;;;;;6.63;3.57;;;7.50;99.90;;;;;;5077342;28;20462;-70
2022/01/04 06:49:30;;;;;;;4.17;3.10;;;7.50;99.90;;;;;;5077663;28;20438;-70
2022/01/04 06:51:57;;;;;;;3.57;3.23;;;7.50;99.90;;;;;;5077417;28;20450;-70
2022/01/04 06:54:25;;;;;;;4.83;3.43;;;7.50;99.90;;;;;;5077661;28;20450;-70
2022/01/04 06:56:52;;;;;;;6.40;5.03;;;7.50;99.90;;;;;;5077473;28;20550;-69
2022/01/04 06:59:19;;;;;;;6.03;4.10;;;7.50;99.90;;;;;;5077365;28;20511;-71
2022/01/04 07:01:46;;;;;;;4.30;3.60;;;7.50;99.90;;;;;;5077726;28;20523;-70
2022/01/04 07:04:13;;;;;;;4.80;4.17;;;7.60;99.90;;;;;;5077415;28;20899;-69
2022/01/04 07:06:40;;;;;;;6.47;4.37;;;7.60;99.90;;;;;;5077451;28;20907;-69
2022/01/04 07:09:08;;;;;;;7.50;5.40;;;7.60;99.90;;;;;;5077498;28;20462;-70
2022/01/04 07:11:37;;;;;;;8.13;4.90;;;7.50;99.90;;;;;;5077330;28;20468;-69
2022/01/04 07:14:05;;;;;;;9.73;6.17;;;7.60;99.90;;;;;;5077223;28;20450;-69
2022/01/04 07:16:32;;;;;;;9.20;5.57;;;7.60;99.90;;;;;;5077948;28;20454;-70
2022/01/04 07:18:58;;;;;;;6.90;5.50;;;7.70;99.90;;;;;;5076972;28;20458;-70
2022/01/04 07:21:25;;;;;;;8.30;5.40;;;7.70;99.90;;;;;;5077953;28;20925;-70
2022/01/04 07:23:54;;;;;;;7.63;4.93;;;7.70;99.90;;;;;;5078137;28;20490;-69
2022/01/04 07:26:22;;;;;;;7.97;5.10;;;7.80;99.90;;;;;;5076749;28;20885;-70
2022/01/04 07:28:51;;;;;;;9.00;5.03;;;7.70;99.90;;;;;;5076905;28;20462;-69
2022/01/04 07:31:19;;;;;;;5.37;4.80;;;7.70;99.90;;;;;;5076561;28;20474;-69
2022/01/04 07:33:46;;;;;;;7.17;5.23;;;7.70;99.90;;;;;;5076932;28;20786;-69
2022/01/04 07:36:13;;;;;;;7.10;5.10;;;7.70;99.90;;;;;;5076388;28;20458;-69
2022/01/04 07:38:40;;;;;;;7.53;5.20;;;7.80;99.90;;;;;;5076550;28;20454;-70
2022/01/04 07:41:07;;;;;;;10.53;5.53;;;7.80;99.90;;;;;;5076454;28;20481;-70
2022/01/04 07:43:35;;;;;;;10.40;5.30;;;7.80;99.90;;;;;;5075904;28;20488;-70
2022/01/04 07:46:03;;;;;;;5.67;5.00;;;7.80;99.90;;;;;;5076282;28;20918;-70
2022/01/04 07:48:30;;;;;;;6.97;5.10;;;7.80;99.90;;;;;;5076023;28;20504;-70
2022/01/04 07:50:58;;;;;;;5.20;4.70;;;7.70;99.90;;;;;;5075903;28;20911;-70
2022/01/04 07:53:25;;;;;;;5.33;4.60;;;7.80;99.90;;;;;;5076297;28;20455;-70
2022/01/04 07:55:52;;;;;;;5.20;4.10;;;7.80;99.90;;;;;;5076185;28;20788;-71
2022/01/04 07:58:19;;;;;;;4.70;4.27;;;7.80;99.90;;;;;;5076147;28;20461;-70
2022/01/04 08:00:46;;;;;;;4.47;4.00;;;7.90;99.90;;;;;;5076230;28;20836;-70
2022/01/04 08:03:14;;;;;;;6.30;4.20;;;7.80;99.90;;;;;;5076000;28;20505;-69
2022/01/04 08:05:41;;;;;;;5.63;3.80;;;7.90;99.90;;;;;;5076021;28;20458;-70
2022/01/04 08:08:08;;;;;;;6.70;4.07;;;7.90;99.90;;;;;;5076025;28;20820;-69
2022/01/04 08:10:35;;;;;;;4.97;4.30;;;7.90;99.90;;;;;;5075451;28;20500;-69
2022/01/04 08:13:02;;;;;;;4.90;3.90;;;7.90;99.90;;;;;;5075890;28;20454;-71
2022/01/04 08:15:29;;;;;;;7.63;4.17;;;8.00;99.90;;;;;;5075414;28;20454;-70
2022/01/04 08:17:56;;;;;;;3.77;3.10;;;8.00;99.90;;;;;;5075818;28;20454;-70
2022/01/04 08:20:24;;;;;;;5.07;3.50;;;8.00;99.90;;;;;;5076180;28;20459;-70
2022/01/04 08:22:51;;;;;;;3.83;3.40;;;8.10;99.90;;;;;;5075316;28;20524;-70
2022/01/04 08:25:19;;;;;;;4.10;3.50;;;8.10;99.90;;;;;;5075497;28;20454;-70
2022/01/04 08:27:46;;;;;;;4.13;2.83;;;8.10;99.90;;;;;;5075475;28;20496;-70
2022/01/04 08:30:15;;;;;;;3.23;2.67;;;8.20;99.90;;;;;;5075225;28;20454;-71
2022/01/04 08:32:41;;;;;;;5.10;2.70;;;8.20;99.90;;;;;;5075504;28;20462;-70
2022/01/04 08:35:09;;;;;;;3.67;3.30;;;8.20;99.90;;;;;;5075377;28;20516;-71
2022/01/04 08:37:37;;;;;;;4.63;2.63;;;8.20;99.90;;;;;;5075495;28;20458;-70
2022/01/04 08:40:06;;;;;;;3.50;2.57;;;8.30;99.90;;;;;;5075049;28;20462;-70
2022/01/04 08:42:33;;;;;;;3.00;2.70;;;8.30;99.90;;;;;;5075325;28;20531;-69
2022/01/04 08:45:00;;;;;;;5.63;2.80;;;8.30;99.90;;;;;;5074883;28;20481;-70
2022/01/04 08:47:27;;;;;;;7.23;3.43;;;8.40;99.90;;;;;;5074478;28;20551;-71
2022/01/04 08:49:54;;;;;;;7.93;2.73;;;8.40;99.90;;;;;;5075219;28;20468;-70
2022/01/04 08:52:20;;;;;;;4.87;2.40;;;8.40;99.90;;;;;;5075080;28;20458;-70
2022/01/04 08:54:48;;;;;;;3.50;2.63;;;8.40;99.90;;;;;;5074695;28;20781;-71
2022/01/04 08:57:15;;;;;;;4.53;2.80;;;8.40;99.90;;;;;;5075334;28;20455;-70
2022/01/04 08:59:42;;;;;;;2.37;2.17;;;8.40;99.90;;;;;;5075921;28;20530;-71
2022/01/04 09:02:09;;;;;;;3.57;2.60;;;8.50;99.90;;;;;;5076133;28;20463;-70
2022/01/04 09:04:35;;;;;;;4.33;2.60;;;8.50;99.90;;;;;;5077389;28;20539;-70
2022/01/04 09:07:02;;;;;;;2.40;2.20;;;8.50;99.90;;;;;;5077698;28;20473;-70
2022/01/04 09:09:29;;;;;;;3.80;2.77;;;8.60;99.90;;;;;;5076412;28;20525;-70
2022/01/04 09:11:57;;;;;;;3.70;2.50;;;8.50;99.90;;;;;;5076019;28;20527;-70
2022/01/04 09:14:28;;;;;;;4.37;2.70;;;8.50;99.90;;;;;;5075879;28;20759;-70
2022/01/04 09:19:42;;;;;;;2.83;2.43;;;8.50;99.90;;;;;;5074554;28;20496;-70
2022/01/04 09:22:09;;;;;;;4.73;2.80;;;8.50;99.90;;;;;;5075307;28;20556;-70
2022/01/04 09:24:37;;;;;;;2.83;2.27;;;8.50;99.90;;;;;;5075593;28;20479;-70
2022/01/04 09:27:06;;;;;;;3.50;2.53;;;8.60;99.90;;;;;;5075932;28;20484;-70
2022/01/04 09:29:33;;;;;;;4.00;2.27;;;8.60;99.90;;;;;;5075650;28;20919;-70
2022/01/04 09:32:01;;;;;;;4.50;1.93;;;8.50;99.90;;;;;;5074878;28;20527;-70
2022/01/04 09:34:28;;;;;;;2.73;2.00;;;8.60;99.90;;;;;;5074753;28;20450;-70
2022/01/04 09:36:55;;;;;;;4.07;1.90;;;8.60;99.90;;;;;;5074914;28;20454;-71
2022/01/04 09:39:25;;;;;;;1.93;1.73;;;8.50;99.90;;;;;;5074509;28;20473;-70
2022/01/04 09:41:55;;;;;;;2.43;1.93;;;8.50;99.90;;;;;;5074471;28;20464;-71
2022/01/04 09:44:25;;;;;;;3.60;2.20;;;8.50;99.90;;;;;;5078059;28;20554;-69
2022/01/04 09:46:51;;;;;;;4.63;1.97;;;8.40;99.90;;;;;;5078617;28;20457;-69
2022/01/04 09:49:18;;;;;;;2.80;1.90;;;8.30;99.90;;;;;;5079105;28;20804;-70
2022/01/04 09:51:45;;;;;;;3.60;2.37;;;8.30;99.90;;;;;;5079237;28;20771;-70
2022/01/04 09:54:12;;;;;;;6.30;2.43;;;8.20;99.90;;;;;;5080940;28;20457;-70
2022/01/04 09:56:39;;;;;;;2.60;2.00;;;8.20;99.90;;;;;;5079883;28;20465;-70
2022/01/04 09:59:06;;;;;;;2.47;1.93;;;8.10;99.90;;;;;;5079825;28;20461;-70
2022/01/04 10:01:38;;;;;;;2.30;2.10;;;8.10;99.90;;;;;;5079203;28;20458;-70
2022/01/04 10:04:06;;;;;;;2.93;1.90;;;8.10;99.90;;;;;;5078508;28;20466;-70
2022/01/04 10:06:33;;;;;;;2.23;2.03;;;8.00;99.90;;;;;;5078475;28;20532;-70
2022/01/04 10:09:04;;;;;;;4.80;2.57;;;8.10;99.90;;;;;;5078574;28;20461;-70
2022/01/04 10:11:32;;;;;;;2.30;2.07;;;8.10;99.90;;;;;;5078466;28;20794;-70
2022/01/04 10:14:00;;;;;;;3.27;2.50;;;8.00;99.90;;;;;;5077944;28;20530;-70
2022/01/04 10:16:28;;;;;;;3.70;2.13;;;8.00;99.90;;;;;;5078175;28;20454;-70
2022/01/04 10:18:56;;;;;;;3.20;2.90;;;8.00;99.90;;;;;;5078272;28;20458;-70
2022/01/04 10:21:23;;;;;;;2.63;2.43;;;8.00;99.90;;;;;;5077828;28;20468;-70
2022/01/04 10:23:53;;;;;;;2.70;2.50;;;8.00;99.90;;;;;;5077612;28;20543;-70
2022/01/04 10:26:30;;;;;;;3.27;2.50;;;7.90;99.90;;;;;;5077885;28;20500;-70
2022/01/04 10:28:57;;;;;;;4.23;3.10;;;7.90;99.90;;;;;;5077581;28;20883;-70
2022/01/04 10:31:25;;;;;;;3.00;2.70;;;7.80;99.90;;;;;;5077923;28;20850;-71
2022/01/04 10:33:57;;;;;;;3.70;3.10;;;7.80;99.90;;;;;;5077866;28;20663;-70
2022/01/04 10:36:25;;;;;;;4.30;2.70;;;7.80;99.90;;;;;;5078008;28;20501;-70
2022/01/04 10:38:52;;;;;;;3.43;2.80;;;7.80;99.90;;;;;;5078429;28;20450;-70
2022/01/04 10:41:23;;;;;;;4.70;2.27;;;7.70;99.90;;;;;;5078738;28;20864;-70
2022/01/04 10:43:51;;;;;;;3.90;2.30;;;7.70;99.90;;;;;;5079750;28;20435;-71
2022/01/04 10:46:21;;;;;;;4.90;3.00;;;7.70;99.90;;;;;;5078334;28;20454;-70
2022/01/04 10:48:50;;;;;;;4.20;2.87;;;7.70;99.90;;;;;;5078333;28;20525;-70
2022/01/04 10:51:21;;;;;;;3.17;2.40;;;7.80;99.90;;;;;;5079892;28;20934;-70
2022/01/04 10:53:50;;;;;;;4.10;2.97;;;7.80;99.90;;;;;;5079536;28;20446;-70
2022/01/04 10:56:18;;;;;;;3.00;2.40;;;7.80;99.90;;;;;;5078547;28;20834;-71
2022/01/04 10:58:47;;;;;;;4.83;2.83;;;7.80;99.90;;;;;;5078842;28;20515;-70
2022/01/04 11:01:16;;;;;;;2.53;2.30;;;7.90;99.90;;;;;;5078943;28;20450;-71
2022/01/04 11:03:44;;;;;;;3.40;2.67;;;8.00;99.90;;;;;;5077325;28;20484;-71
2022/01/04 11:06:13;;;;;;;5.30;2.17;;;7.90;99.90;;;;;;5077137;28;20454;-70
2022/01/04 11:08:43;;;;;;;2.37;2.17;;;7.90;99.90;;;;;;5077265;28;20455;-70
2022/01/04 11:11:10;;;;;;;3.10;1.93;;;7.90;99.90;;;;;;5077322;28;20453;-70
2022/01/04 11:13:37;;;;;;;2.50;2.00;;;7.90;99.90;;;;;;5076849;28;20458;-70
2022/01/04 11:16:06;;;;;;;2.03;1.83;;;7.90;99.90;;;;;;5077301;28;20805;-70
2022/01/04 11:18:34;;;;;;;2.73;2.17;;;8.00;99.90;;;;;;5077291;28;20458;-71
2022/01/04 11:21:01;;;;;;;4.67;1.87;;;7.90;99.90;;;;;;5077108;28;20854;-71
2022/01/04 11:23:30;;;;;;;2.27;2.07;;;7.90;99.90;;;;;;5076988;28;20973;-70
2022/01/04 11:26:02;;;;;;;2.80;1.63;;;7.80;99.90;;;;;;5076951;28;20481;-71
2022/01/04 11:28:29;;;;;;;3.53;2.60;;;7.80;99.90;;;;;;5077214;28;20517;-71
2022/01/04 11:31:30;;;;;;;2.60;2.20;;;7.70;99.90;;;;;;5076434;28;20469;-70
2022/01/04 11:34:10;;;;;;;2.90;2.27;;;7.70;99.90;;;;;;5066091;28;20458;-71
2022/01/04 11:36:38;;;;;;;3.10;2.37;;;7.70;99.90;;;;;;5076720;28;20446;-71
2022/01/04 11:39:27;;;;;;;4.60;2.83;;;7.70;99.90;;;;;;5076532;28;20837;-71
2022/01/04 11:41:56;;;;;;;3.70;2.60;;;7.70;99.90;;;;;;5076458;28;20447;-71
2022/01/04 11:44:24;;;;;;;3.40;2.40;;;7.70;99.90;;;;;;5076289;28;20582;-70
2022/01/04 11:47:07;;;;;;;3.10;2.50;;;7.70;99.90;;;;;;5076217;28;20465;-71
2022/01/04 11:49:36;;;;;;;3.43;2.20;;;7.60;99.90;;;;;;5076329;28;20443;-70
2022/01/04 11:52:04;;;;;;;2.40;2.10;;;7.70;99.90;;;;;;5076203;28;20466;-70
2022/01/04 11:54:32;;;;;;;2.50;2.30;;;7.70;99.90;;;;;;5078034;28;20469;-70
2022/01/04 11:57:02;;;;;;;5.77;3.17;;;7.70;99.90;;;;;;5077975;28;20540;-71
2022/01/04 11:59:34;;;;;;;5.40;3.97;;;7.70;99.90;;;;;;5076342;28;20481;-70
2022/01/04 12:02:25;;;;;;;4.43;2.50;;;7.70;99.90;;;;;;5076278;28;20443;-71
2022/01/04 12:04:53;;;;;;;2.97;2.50;;;7.80;99.90;;;;;;5075503;28;20603;-71
2022/01/04 12:07:46;;;;;;;3.27;2.97;;;7.80;99.90;;;;;;5075277;28;20465;-70
2022/01/04 12:10:36;;;;;;;3.07;2.70;;;7.80;99.90;;;;;;5075854;28;20457;-70
2022/01/04 12:13:16;;;;;;;3.27;2.67;;;7.80;99.90;;;;;;5075568;28;20883;-70
2022/01/04 12:16:05;;;;;;;2.77;2.53;;;7.80;99.90;;;;;;5076550;28;20446;-71
2022/01/04 12:18:57;;;;;;;3.30;2.77;;;7.90;99.90;;;;;;5080017;28;20465;-71
2022/01/04 12:21:26;;;;;;;3.50;3.03;;;7.80;99.90;;;;;;5076603;28;20465;-70
2022/01/04 12:23:54;;;;;;;4.00;3.40;;;7.90;99.90;;;;;;5076251;28;20465;-70
2022/01/04 12:26:26;;;;;;;4.43;3.30;;;7.90;99.90;;;;;;5075225;28;21033;-70
2022/01/04 12:29:25;;;;;;;3.77;2.90;;;7.90;99.90;;;;;;5075588;28;20793;-70
2022/01/04 12:32:02;;;;;;;3.20;2.90;;;7.90;99.90;;;;;;5075524;28;20450;-71
2022/01/04 12:35:03;;;;;;;3.47;3.10;;;7.90;99.90;;;;;;5075704;28;20537;-71
2022/01/04 12:37:33;;;;;;;3.47;2.77;;;7.90;99.90;;;;;;5075639;28;20445;-70
2022/01/04 12:40:00;;;;;;;3.27;2.97;;;7.90;99.90;;;;;;5075480;28;20794;-71
2022/01/04 12:42:26;;;;;;;3.70;2.90;;;7.90;99.90;;;;;;5075297;28;20553;-71
2022/01/04 12:44:58;;;;;;;3.63;3.23;;;7.90;99.90;;;;;;5074974;28;20482;-72
2022/01/04 12:47:26;;;;;;;3.40;3.10;;;8.00;99.90;;;;;;5075256;28;20482;-71
2022/01/04 12:49:53;;;;;;;2.73;2.53;;;8.00;99.90;;;;;;5075604;28;20473;-71
2022/01/04 12:52:21;;;;;;;5.70;3.40;;;8.00;99.90;;;;;;5075183;28;20906;-71
2022/01/04 12:54:49;;;;;;;3.70;3.33;;;8.10;99.90;;;;;;5075436;28;20446;-71
2022/01/04 12:57:18;;;;;;;3.40;3.03;;;8.10;99.90;;;;;;5075050;28;20462;-71
2022/01/04 12:59:47;;;;;;;4.23;3.60;;;8.10;99.90;;;;;;5074651;28;20964;-71
2022/01/04 13:02:21;;;;;;;5.07;3.30;;;8.10;99.90;;;;;;5074817;28;20481;-72
2022/01/04 13:04:50;;;;;;;3.67;3.40;;;8.10;99.90;;;;;;5075033;28;20484;-70
2022/01/04 13:07:22;;;;;;;9.40;3.40;;;8.20;99.90;;;;;;5074756;28;20473;-71
2022/01/04 13:09:51;;;;;;;3.63;3.33;;;8.20;99.90;;;;;;5075234;28;20462;-71